createdAt,value
2023-05-05T00:04:47.707Z,6.00
2023-05-05T00:09:53.299Z,4.50
2023-05-05T00:15:01.872Z,5.60
2023-05-05T00:20:08.902Z,5.68
2023-05-05T00:25:14.627Z,4.20
2023-05-05T00:30:23.045Z,6.78
2023-05-05T00:35:28.716Z,6.03
2023-05-05T00:40:34.515Z,5.17
2023-05-05T00:45:44.809Z,6.18
2023-05-05T00:50:50.350Z,5.25
2023-05-05T00:55:56.286Z,5.47
2023-05-05T01:01:06.053Z,5.18
2023-05-05T01:06:20.262Z,5.93
2023-05-05T01:11:32.195Z,4.80
2023-05-05T01:16:44.023Z,7.53
2023-05-05T01:21:56.416Z,4.88
2023-05-05T01:27:20.897Z,6.85
2023-05-05T01:32:31.690Z,5.47
2023-05-05T01:37:48.837Z,10.05
2023-05-05T01:42:55.390Z,5.95
2023-05-05T01:48:05.119Z,5.17
2023-05-05T01:53:11.792Z,7.97
2023-05-05T01:58:18.588Z,4.97
2023-05-05T02:03:28.577Z,6.00
2023-05-05T02:08:36.277Z,5.25
2023-05-05T02:13:44.980Z,6.97
2023-05-05T02:18:58.278Z,6.53
2023-05-05T02:24:04.869Z,5.10
2023-05-05T02:29:13.367Z,5.78
2023-05-05T02:34:31.047Z,8.82
2023-05-05T02:39:43.898Z,9.07
2023-05-05T02:44:54.838Z,4.57
2023-05-05T02:50:03.187Z,9.00
2023-05-05T02:55:11.208Z,6.47
2023-05-05T03:00:25.958Z,8.55
2023-05-05T03:05:40.373Z,6.30
2023-05-05T03:10:50.338Z,6.77
2023-05-05T03:15:58.804Z,5.55
2023-05-05T03:21:10.863Z,6.85
2023-05-05T03:26:20.843Z,7.50
2023-05-05T03:31:28.769Z,9.40
2023-05-05T03:36:42.191Z,6.43
2023-05-05T03:41:50.591Z,7.80
2023-05-05T03:46:59.258Z,7.83
2023-05-05T03:52:08.745Z,9.68
2023-05-05T03:57:14.974Z,7.18
2023-05-05T04:02:20.730Z,8.40
2023-05-05T04:07:30.901Z,8.57
2023-05-05T04:12:36.549Z,8.50
2023-05-05T04:17:42.261Z,8.93
2023-05-05T04:22:52.592Z,8.55
2023-05-05T04:27:59.283Z,8.20
2023-05-05T04:33:06.525Z,7.80
2023-05-05T04:38:15.394Z,7.05
2023-05-05T04:43:21.202Z,8.13
2023-05-05T04:48:26.808Z,7.83
2023-05-05T04:53:34.985Z,8.50
2023-05-05T04:58:40.690Z,8.75
2023-05-05T05:03:46.389Z,11.50
2023-05-05T05:08:54.657Z,10.43
2023-05-05T05:14:01.496Z,12.90
2023-05-05T05:19:08.258Z,9.15
2023-05-05T05:24:16.466Z,8.00
2023-05-05T05:29:22.949Z,9.85
2023-05-05T05:34:28.569Z,10.10
2023-05-05T05:39:37.097Z,13.17
2023-05-05T05:44:43.464Z,13.93
2023-05-05T05:49:49.036Z,10.45
2023-05-05T05:54:57.150Z,10.73
2023-05-05T06:00:02.636Z,11.82
2023-05-05T06:05:17.249Z,15.48
2023-05-05T06:10:28.471Z,13.40
2023-05-05T06:15:47.791Z,16.83
2023-05-05T06:20:55.358Z,15.10
2023-05-05T06:26:08.607Z,15.17
2023-05-05T06:31:14.599Z,13.63
2023-05-05T06:36:20.133Z,16.02
2023-05-05T06:41:28.148Z,16.23
2023-05-05T06:46:33.506Z,9.90
2023-05-05T06:51:41.054Z,15.10
2023-05-05T06:56:50.746Z,12.68
2023-05-05T07:01:56.575Z,9.60
2023-05-05T07:07:02.104Z,12.73
2023-05-05T07:12:10.635Z,8.32
2023-05-05T07:17:16.117Z,5.23
2023-05-05T07:22:21.505Z,9.27
2023-05-05T07:27:29.623Z,6.82
2023-05-05T07:32:35.048Z,7.20
2023-05-05T07:37:40.418Z,8.63
2023-05-05T07:42:48.445Z,10.55
2023-05-05T07:47:54.005Z,6.95
2023-05-05T07:53:10.615Z,9.10
2023-05-05T07:58:22.632Z,9.05
2023-05-05T08:03:28.335Z,9.70
2023-05-05T08:08:33.906Z,13.13
2023-05-05T08:13:43.007Z,10.43
2023-05-05T08:18:48.590Z,13.45
2023-05-05T08:23:53.987Z,12.17
2023-05-05T08:29:03.817Z,10.87
2023-05-05T08:34:09.493Z,14.48
2023-05-05T08:39:14.895Z,11.32
2023-05-05T08:44:22.966Z,8.90
2023-05-05T08:49:28.801Z,10.45
2023-05-05T08:54:37.669Z,9.23
2023-05-05T08:59:47.070Z,7.43
2023-05-05T09:04:54.423Z,9.45
2023-05-05T09:09:59.825Z,9.52
2023-05-05T09:15:09.070Z,9.40
2023-05-05T09:20:16.962Z,7.83
2023-05-05T09:25:22.424Z,6.20
2023-05-05T09:30:30.737Z,5.70
2023-05-05T09:35:53.359Z,6.30
2023-05-05T09:40:58.753Z,6.18
2023-05-05T09:46:13.154Z,5.82
2023-05-05T09:51:18.950Z,4.53
2023-05-05T09:56:24.360Z,4.38
2023-05-05T10:01:33.600Z,6.13
2023-05-05T10:06:47.766Z,4.03
2023-05-05T10:11:54.231Z,6.20
2023-05-05T10:17:04.830Z,3.22
2023-05-05T10:22:12.350Z,4.97
2023-05-05T10:27:22.348Z,7.50
2023-05-05T10:37:49.252Z,6.55
2023-05-05T10:42:56.994Z,5.13
2023-05-05T10:48:09.372Z,6.70
2023-05-05T10:53:22.139Z,5.95
2023-05-05T10:58:51.136Z,5.30
2023-05-05T11:04:27.084Z,4.97
2023-05-05T11:09:33.406Z,5.43
2023-05-05T11:14:38.957Z,6.13
2023-05-05T11:20:03.856Z,7.77
2023-05-05T11:25:51.535Z,4.88
2023-05-05T11:31:24.560Z,8.45
2023-05-05T11:36:43.848Z,8.10
2023-05-05T11:42:10.796Z,8.65
2023-05-05T11:47:33.620Z,5.68
2023-05-05T11:52:41.771Z,5.87
2023-05-05T11:57:47.397Z,3.80
2023-05-05T12:03:02.078Z,3.60
2023-05-05T12:08:31.404Z,4.03
2023-05-05T12:13:37.370Z,2.60
2023-05-05T12:18:44.091Z,4.72
2023-05-05T12:23:53.008Z,2.53
2023-05-05T12:28:58.832Z,2.50
2023-05-05T12:34:04.852Z,4.68
2023-05-05T12:39:13.034Z,3.55
2023-05-05T12:44:20.184Z,3.00
2023-05-05T12:49:25.832Z,3.38
2023-05-05T12:54:36.415Z,5.95
2023-05-05T12:59:45.561Z,4.37
2023-05-05T13:04:53.284Z,3.93
2023-05-05T13:10:12.997Z,2.40
2023-05-05T13:15:21.579Z,8.85
2023-05-05T13:20:27.582Z,4.87
2023-05-05T13:25:36.485Z,5.95
2023-05-05T13:30:43.119Z,5.35
2023-05-05T13:35:49.961Z,4.30
2023-05-05T13:40:58.421Z,7.40
2023-05-05T13:46:18.834Z,6.35
2023-05-05T13:51:25.676Z,8.60
2023-05-05T13:56:33.941Z,7.80
2023-05-05T14:01:40.460Z,6.60
2023-05-05T14:06:46.556Z,8.10
2023-05-05T14:11:55.116Z,4.40
2023-05-05T14:17:00.714Z,4.72
2023-05-05T14:22:06.736Z,3.38
2023-05-05T14:27:14.884Z,2.90
2023-05-05T14:32:23.225Z,3.15
2023-05-05T14:37:30.199Z,2.47
2023-05-05T14:42:38.400Z,2.80
2023-05-05T14:47:44.530Z,3.50
2023-05-05T14:52:50.046Z,4.80
2023-05-05T14:57:58.001Z,6.40
2023-05-05T15:03:03.527Z,5.53
2023-05-05T15:08:09.424Z,9.50
2023-05-05T15:13:18.731Z,5.25
2023-05-05T15:18:25.666Z,2.13
2023-05-05T15:23:31.232Z,2.65
2023-05-05T15:28:39.860Z,2.88
2023-05-05T15:33:48.732Z,2.70
2023-05-05T15:38:55.007Z,2.10
2023-05-05T15:44:05.056Z,4.97
2023-05-05T15:49:11.042Z,2.97
2023-05-05T15:54:16.594Z,5.40
2023-05-05T15:59:24.622Z,3.05
2023-05-05T16:04:30.167Z,3.42
2023-05-05T16:09:35.636Z,3.90
2023-05-05T16:14:43.752Z,3.92
2023-05-05T16:19:49.178Z,7.18
2023-05-05T16:24:54.680Z,5.13
2023-05-05T16:30:02.737Z,5.65
2023-05-05T16:35:09.393Z,6.35
2023-05-05T16:40:15.756Z,5.30
2023-05-05T16:45:24.484Z,6.75
2023-05-05T16:50:30.180Z,6.38
2023-05-05T16:55:35.569Z,4.67
2023-05-05T17:00:46.832Z,6.50
2023-05-05T17:05:53.029Z,6.32
2023-05-05T17:10:58.506Z,5.63
2023-05-05T17:16:06.793Z,7.23
2023-05-05T17:21:12.195Z,5.05
2023-05-05T17:26:17.605Z,5.07
2023-05-05T17:31:25.842Z,6.63
2023-05-05T17:36:31.380Z,7.25
2023-05-05T17:41:37.020Z,5.55
2023-05-05T17:46:45.166Z,3.77
2023-05-05T17:51:51.144Z,4.35
2023-05-05T17:56:57.936Z,4.43
2023-05-05T18:02:05.981Z,4.20
2023-05-05T18:07:12.407Z,3.60
2023-05-05T18:12:18.089Z,6.45
2023-05-05T18:17:26.457Z,4.53
2023-05-05T18:22:32.838Z,5.60
2023-05-05T18:27:39.945Z,8.43
2023-05-05T18:32:49.031Z,3.35
2023-05-05T18:37:55.440Z,4.27
2023-05-05T18:43:01.155Z,2.63
2023-05-05T18:48:09.859Z,3.03
2023-05-05T18:53:17.806Z,3.20
2023-05-05T18:58:24.977Z,4.70
2023-05-05T19:03:33.069Z,6.15
2023-05-05T19:08:38.825Z,6.30
2023-05-05T19:13:45.553Z,5.93
2023-05-05T19:18:58.893Z,7.13
2023-05-05T19:24:05.006Z,5.30
2023-05-05T19:29:10.582Z,5.27
2023-05-05T19:34:18.638Z,5.35
2023-05-05T19:39:24.105Z,3.78
2023-05-05T19:44:29.515Z,4.60
2023-05-05T19:49:37.747Z,5.38
2023-05-05T19:54:43.646Z,4.55
2023-05-05T19:59:49.974Z,4.77
2023-05-05T20:04:58.240Z,4.65
2023-05-05T20:10:03.803Z,5.45
2023-05-05T20:15:11.053Z,5.77
2023-05-05T20:20:21.461Z,5.82
2023-05-05T20:25:27.172Z,7.22
2023-05-05T20:30:34.199Z,6.40
2023-05-05T20:35:42.406Z,6.18
2023-05-05T20:40:47.884Z,6.63
2023-05-05T20:45:54.896Z,8.13
2023-05-05T20:51:06.526Z,9.07
2023-05-05T20:56:12.540Z,7.38
2023-05-05T21:01:18.046Z,10.03
2023-05-05T21:06:26.041Z,10.73
2023-05-05T21:11:31.565Z,12.82
2023-05-05T21:16:38.041Z,10.93
2023-05-05T21:21:46.236Z,14.50
2023-05-05T21:26:51.626Z,19.40
2023-05-05T21:31:57.108Z,9.63
2023-05-05T21:37:05.555Z,21.98
2023-05-05T21:42:11.020Z,17.35
2023-05-05T21:47:16.481Z,14.83
2023-05-05T21:52:24.570Z,13.20
2023-05-05T21:57:30.090Z,13.30
2023-05-05T22:02:35.961Z,14.73
2023-05-05T22:07:45.888Z,14.30
2023-05-05T22:12:51.465Z,14.80
2023-05-05T22:17:56.934Z,12.47
2023-05-05T22:23:04.863Z,13.95
2023-05-05T22:28:10.220Z,14.95
2023-05-05T22:33:15.668Z,18.73
2023-05-05T22:38:23.622Z,17.42
2023-05-05T22:43:29.004Z,15.10
2023-05-05T22:48:34.450Z,19.37
2023-05-05T22:53:42.524Z,18.30
2023-05-05T22:58:49.172Z,17.02
2023-05-05T23:03:54.602Z,17.80
2023-05-05T23:09:02.759Z,22.25
2023-05-05T23:14:08.160Z,24.42
2023-05-05T23:19:13.612Z,17.73
2023-05-05T23:24:21.768Z,17.23
2023-05-05T23:29:27.306Z,21.75
2023-05-05T23:34:32.934Z,18.05
2023-05-05T23:39:40.981Z,15.60
2023-05-05T23:44:47.690Z,17.00
2023-05-05T23:49:53.567Z,15.60
2023-05-05T23:55:01.899Z,19.43
